K&a Sp — 3FVZ3 — position and weather

sailwx.info

Track history (hours):
 
Tides and Currents Weather Stations Pressure Air Temp Water Temp Dewpoint Dewpoint Depression Visibility Wind Speed Wind Dir Waves Ship Positions

K&a Sp

Last reported at 2017-Feb-19 22:23 UTC. Time now 2017-Feb-23 16:06 UTC.
Position N 31°00' E 122°27'.

Length 177 m; draft 6.7 m.

Type: Cargo ship. MMSI: 354085000.

Date/timePositionNaut miles runAvg speedWind from/ knotsBaromVisibWave heightAir tempDewpointWater temp
2017-Feb-19 22:23N 31°00' E 122°27'1012.5
2017-Feb-19 21:33N 31°02' E 122°15'10 9.7
2017-Feb-19 20:33N 31°04' E 122°04'1010.1
2017-Feb-19 19:33N 31°09' E 121°53'1212.0
2017-Feb-19 18:33N 31°18' E 121°44'1211.5
2017-Feb-19 17:33N 31°24' E 121°33'10 9.5
2017-Feb-19 16:33N 31°30' E 121°24'1212.4
2017-Feb-19 15:33N 31°39' E 121°14'1413.3
2017-Feb-19 14:30N 31°47' E 120°60'2510.3
2017-Feb-19 12:04N 32°00' E 120°35'712.5
2017-Feb-19 11:32N 32°02' E 120°27'6 0.2
2017-Feb-17 18:13N 31°59' E 120°21'7 8.5
2017-Feb-17 17:27N 32°02' E 120°28'33 8.2
2017-Feb-17 13:29N 31°46' E 121°02'910.1
2017-Feb-17 12:33N 31°41' E 121°10'10 9.8
2017-Feb-17 11:33N 31°35' E 121°19'0 0.1
2017-Feb-17 10:32N 31°35' E 121°19'0 0.0
2017-Feb-17 09:29N 31°35' E 121°19'0 0.0
2017-Feb-17 08:32N 31°35' E 121°19'0 0.0
2017-Feb-17 07:29N 31°35' E 121°19'0 0.1
2017-Feb-17 06:26N 31°35' E 121°19'0 0.2
2017-Feb-17 05:32N 31°35' E 121°19'0 0.1
2017-Feb-17 04:32N 31°35' E 121°20'0 0.0
2017-Feb-17 03:32N 31°35' E 121°20'0 0.0
2017-Feb-17 02:32N 31°35' E 121°20'0 0.0
2017-Feb-17 01:32N 31°35' E 121°20'0 0.0
2017-Feb-17 00:32N 31°35' E 121°20'0 0.1
2017-Feb-16 23:32N 31°35' E 121°20'0 0.1
2017-Feb-16 22:32N 31°35' E 121°19'0 0.1
2017-Feb-16 21:32N 31°35' E 121°19'0 0.1
2017-Feb-16 20:32N 31°35' E 121°19'0 0.0
2017-Feb-16 19:32N 31°35' E 121°19'0 0.0
2017-Feb-16 18:32N 31°35' E 121°19'0 0.2
2017-Feb-16 17:32N 31°35' E 121°20'0 0.0
2017-Feb-16 16:29N 31°35' E 121°20'0 0.0
2017-Feb-16 15:30N 31°35' E 121°20'0 0.0
2017-Feb-16 14:26N 31°35' E 121°20'0 0.1
2017-Feb-16 13:32N 31°35' E 121°20'0 0.0
2017-Feb-16 12:32N 31°35' E 121°20'0 0.0
2017-Feb-16 11:29N 31°35' E 121°20'2 2.2
2017-Feb-16 10:34N 31°33' E 121°21'10 9.8
2017-Feb-16 09:34N 31°26' E 121°29'7 6.8
2017-Feb-16 08:33N 31°23' E 121°36'9 9.4
2017-Feb-16 07:34N 31°18' E 121°46'1111.1
2017-Feb-16 06:34N 31°15' E 121°58'1110.6
2017-Feb-16 05:34N 31°11' E 122°10'1212.2
2017-Feb-16 04:33N 31°06' E 122°23'  
Track history (hours):
 
Tides and Currents Weather Stations Pressure Air Temp Water Temp Dewpoint Dewpoint Depression Visibility Wind Speed Wind Dir Waves Ship Positions

K&a Sp

Last reported at 2017-Feb-19 22:23 UTC. Time now 2017-Feb-23 16:06 UTC.
Position N 31°00' E 122°27'.

Length 177 m; draft 6.7 m.

Type: Cargo ship. MMSI: 354085000.

Date/timePositionNaut miles runAvg speedWind from/ knotsBaromVisibWave heightAir tempDewpointWater temp
2017-Feb-19 22:23N 31°00' E 122°27'1012.5
2017-Feb-19 21:33N 31°02' E 122°15'10 9.7
2017-Feb-19 20:33N 31°04' E 122°04'1010.1
2017-Feb-19 19:33N 31°09' E 121°53'1212.0
2017-Feb-19 18:33N 31°18' E 121°44'1211.5
2017-Feb-19 17:33N 31°24' E 121°33'10 9.5
2017-Feb-19 16:33N 31°30' E 121°24'1212.4
2017-Feb-19 15:33N 31°39' E 121°14'1413.3
2017-Feb-19 14:30N 31°47' E 120°60'2510.3
2017-Feb-19 12:04N 32°00' E 120°35'712.5
2017-Feb-19 11:32N 32°02' E 120°27'6 0.2
2017-Feb-17 18:13N 31°59' E 120°21'7 8.5
2017-Feb-17 17:27N 32°02' E 120°28'33 8.2
2017-Feb-17 13:29N 31°46' E 121°02'910.1
2017-Feb-17 12:33N 31°41' E 121°10'10 9.8
2017-Feb-17 11:33N 31°35' E 121°19'0 0.1
2017-Feb-17 10:32N 31°35' E 121°19'0 0.0
2017-Feb-17 09:29N 31°35' E 121°19'0 0.0
2017-Feb-17 08:32N 31°35' E 121°19'0 0.0
2017-Feb-17 07:29N 31°35' E 121°19'0 0.1
2017-Feb-17 06:26N 31°35' E 121°19'0 0.2
2017-Feb-17 05:32N 31°35' E 121°19'0 0.1
2017-Feb-17 04:32N 31°35' E 121°20'0 0.0
2017-Feb-17 03:32N 31°35' E 121°20'0 0.0
2017-Feb-17 02:32N 31°35' E 121°20'0 0.0
2017-Feb-17 01:32N 31°35' E 121°20'0 0.0
2017-Feb-17 00:32N 31°35' E 121°20'0 0.1
2017-Feb-16 23:32N 31°35' E 121°20'0 0.1
2017-Feb-16 22:32N 31°35' E 121°19'0 0.1
2017-Feb-16 21:32N 31°35' E 121°19'0 0.1
2017-Feb-16 20:32N 31°35' E 121°19'0 0.0
2017-Feb-16 19:32N 31°35' E 121°19'0 0.0
2017-Feb-16 18:32N 31°35' E 121°19'0 0.2
2017-Feb-16 17:32N 31°35' E 121°20'0 0.0
2017-Feb-16 16:29N 31°35' E 121°20'0 0.0
2017-Feb-16 15:30N 31°35' E 121°20'0 0.0
2017-Feb-16 14:26N 31°35' E 121°20'0 0.1
2017-Feb-16 13:32N 31°35' E 121°20'0 0.0
2017-Feb-16 12:32N 31°35' E 121°20'0 0.0
2017-Feb-16 11:29N 31°35' E 121°20'2 2.2
2017-Feb-16 10:34N 31°33' E 121°21'10 9.8
2017-Feb-16 09:34N 31°26' E 121°29'7 6.8
2017-Feb-16 08:33N 31°23' E 121°36'9 9.4
2017-Feb-16 07:34N 31°18' E 121°46'1111.1
2017-Feb-16 06:34N 31°15' E 121°58'1110.6
2017-Feb-16 05:34N 31°11' E 122°10'1212.2
2017-Feb-16 04:33N 31°06' E 122°23'  

Dump ship's entire track history